Terminal Aerodrome Forecast
Issued by NWS

Home | Current Version | Previous Version | Text Only | Print | Product List | Glossary On
Versions: 1 2 3 4 5 6 7 8 9 10 11 12 13 14 15 16 17 18 19
000
FTUS45 KABQ 042336
TAFLVS
TAF
KLVS 042336Z 0500/0524 20011G20KT P6SM VCSH SCT060 BKN150
      TEMPO 0500/0502 VRB20G30KT -TSRA OVC050CB
     FM050200 20010KT P6SM VCSH OVC040
     FM050500 19008KT P6SM BKN050
     FM051000 18006KT 5SM BR OVC008
     FM051600 21015KT P6SM SCT030 SCT150
     FM051900 20015G25KT P6SM VCTS BKN060CB BKN120=

USA.gov is the U.S. government's official web portal to all federal, state and local government web resources and services.